Maugansville, MD

22:45 EDT le 24 octobre 2014 (GMT -0400)
Hagerstown Regional-Henson | Change Station
CLOSE
Current Station
Aéroport
Location: Hagerstown,
Altitude: 705 ft
Stations météo à proximité

Alt. 705 ft 39.71 °N, 77.73 °W | Updated 52 minutes ago

Partiellement nuageux
Partiellement nuageux
52 ° F
Paraît 52 ° F
N
6
Vent Variable Vent de ONO

Aujourd'hui
Haut(e) -- | Bas -- ° F
--% Risque de précip.
Hier
Haut(e) -- | Bas -- ° F
Precip. -- pouce
7:30 AM 6:18 PM
Nouvelle lune, 2% visible
Pression 30.01 pouce
Visibilité 10.0 Miles terrestres
Nuages Ciel dégagé
Point de rosée 38 ° F
Humidité 59%
Précipitations 0.00 pouce
Profondeur de la couche neigeuse Non disponible.
UV 0 sur 12
Pollen 2.20 sur 12
Qualité de l'air Non disponible.
Flu Activity Sporadic
METAR KHGR 250153Z AUTO 30005KT 10SM CLR 11/03 A2998 RMK AO2 SLP161 T01110033

More Conditions Fewer Conditions

Pression 30.01 pouce
Visibilité 10.0 Miles terrestres
Nuages Ciel dégagé
Point de rosée 38 ° F
Humidité 59%
Précipitations 0.00 pouce
Profondeur de la couche neigeuse Non disponible.
UV 0 sur 12
Pollen 2.20 sur 12
Qualité de l'air Non disponible.
Flu Activity Sporadic
METAR KHGR 250153Z AUTO 30005KT 10SM CLR 11/03 A2998 RMK AO2 SLP161 T01110033

More Conditions Fewer Conditions

10-Day Weather Forecast

Almanac

Astronomie

Oct. 24, 2014 Lever Coucher
Temps réel 07:30 EDT 18:18 EDT
Crépuscule civil 07:03 EDT 18:46 EDT
Crépuscule nautique 06:31 EDT 19:17 EDT
Crépuscule astronomique 06:00 EDT 19:49 EDT
Lune 08:07 EDT (10/24) 18:57 EDT (10/24)
Durée de lumière visible 11h 43m
Longueur du jour
10h 48m
Tomorrow will be 2m 25s shorter.
Nouvelle lune, 2% of the Moon is Illuminated
Aujourd'hui
Nouvelle lune
Oct 30
Premier quartier
Nov 6
Pleine lune
Nov 14
Dernier quartier
Nov 22
Nouveau

Extrêmes aujourd'hui

State Highs State Lows

Community

WunderPhotos

Upload Photos

1,764,760 Photos téléchargées !

Nearby

Épaisseur de neige

Station Depth Altitude
Pas de nouvelles chutes de neige

Activité sismique

Ville Distance Mag. Time & Date
No recent earthquake activity has been reported nearby.
Minimum magnitude displayed is 2.5.

Températures des eaux côtières

Lieu Température
Aucun rapport de station

Stations météo à proximité